createdAt,value
2018-04-20T00:01:55.000Z,3.00
2018-04-20T00:04:22.503Z,3.30
2018-04-20T00:06:50.005Z,2.90
2018-04-20T00:09:17.547Z,2.77
2018-04-20T00:11:45.244Z,2.83
2018-04-20T00:14:12.752Z,2.50
2018-04-20T00:16:40.290Z,2.73
2018-04-20T00:19:07.802Z,2.60
2018-04-20T00:21:35.349Z,2.90
2018-04-20T00:24:02.900Z,2.60
2018-04-20T00:26:30.434Z,2.67
2018-04-20T00:28:58.017Z,2.60
2018-04-20T00:31:25.529Z,5.53
2018-04-20T00:33:53.027Z,3.27
2018-04-20T00:36:20.552Z,2.57
2018-04-20T00:38:48.106Z,2.53
2018-04-20T00:41:15.611Z,2.40
2018-04-20T00:43:43.123Z,2.40
2018-04-20T00:46:10.671Z,2.20
2018-04-20T00:48:38.168Z,2.40
2018-04-20T00:51:05.666Z,2.70
2018-04-20T00:53:44.849Z,2.30
2018-04-20T00:56:12.348Z,2.50
2018-04-20T00:58:39.840Z,2.67
2018-04-20T01:01:07.343Z,2.77
2018-04-20T01:03:34.886Z,2.53
2018-04-20T01:06:02.367Z,2.60
2018-04-20T01:08:29.869Z,2.57
2018-04-20T01:10:57.382Z,2.80
2018-04-20T01:13:24.886Z,2.40
2018-04-20T01:15:52.394Z,3.40
2018-04-20T01:18:19.890Z,2.63
2018-04-20T01:20:47.387Z,2.50
2018-04-20T01:23:14.944Z,2.90
2018-04-20T01:25:42.443Z,2.50
2018-04-20T01:28:09.938Z,2.90
2018-04-20T01:30:37.438Z,2.80
2018-04-20T01:33:04.935Z,2.90
2018-04-20T01:35:32.432Z,2.70
2018-04-20T01:37:59.940Z,2.70
2018-04-20T01:40:27.435Z,4.17
2018-04-20T01:42:54.929Z,2.90
2018-04-20T01:45:22.434Z,2.97
2018-04-20T01:47:49.934Z,3.17
2018-04-20T01:50:17.436Z,3.17
2018-04-20T01:52:44.940Z,3.20
2018-04-20T01:55:12.443Z,2.93
2018-04-20T01:57:39.934Z,2.97
2018-04-20T02:00:07.444Z,3.00
2018-04-20T02:02:34.951Z,2.80
2018-04-20T02:05:02.448Z,3.03
2018-04-20T02:07:29.967Z,2.87
2018-04-20T02:09:57.483Z,3.27
2018-04-20T02:12:24.993Z,3.30
2018-04-20T02:14:52.510Z,2.90
2018-04-20T02:17:20.058Z,3.20
2018-04-20T02:19:47.566Z,3.20
2018-04-20T02:22:15.065Z,3.50
2018-04-20T02:24:42.571Z,3.27
2018-04-20T02:27:10.123Z,3.20
2018-04-20T02:29:37.615Z,3.20
2018-04-20T02:32:05.156Z,3.63
2018-04-20T02:34:32.705Z,3.17
2018-04-20T02:37:00.208Z,3.43
2018-04-20T02:39:27.747Z,3.77
2018-04-20T02:41:55.333Z,3.70
2018-04-20T02:44:22.845Z,3.33
2018-04-20T02:46:50.367Z,3.13
2018-04-20T02:49:17.867Z,3.60
2018-04-20T02:51:45.633Z,3.50
2018-04-20T02:54:13.203Z,3.80
2018-04-20T02:56:40.795Z,4.10
2018-04-20T02:59:08.304Z,3.37
2018-04-20T03:01:35.855Z,3.27
2018-04-20T03:04:03.415Z,3.50
2018-04-20T03:06:30.921Z,3.30
2018-04-20T03:08:58.459Z,3.60
2018-04-20T03:11:25.969Z,3.27
2018-04-20T03:13:53.468Z,3.10
2018-04-20T03:16:20.971Z,3.50
2018-04-20T03:18:48.472Z,3.27
2018-04-20T03:21:15.990Z,3.37
2018-04-20T03:23:43.496Z,3.20
2018-04-20T03:26:11.002Z,3.43
2018-04-20T03:28:38.495Z,3.63
2018-04-20T03:31:05.995Z,3.90
2018-04-20T03:33:33.508Z,3.33
2018-04-20T03:36:01.007Z,3.53
2018-04-20T03:38:28.509Z,3.33
2018-04-20T03:40:56.066Z,4.33
2018-04-20T03:43:23.562Z,4.10
2018-04-20T03:45:51.068Z,3.47
2018-04-20T03:48:18.616Z,4.20
2018-04-20T03:50:46.120Z,4.17
2018-04-20T03:53:13.620Z,3.93
2018-04-20T03:55:41.116Z,3.77
2018-04-20T03:58:08.608Z,4.10
2018-04-20T04:00:36.151Z,4.63
2018-04-20T04:03:03.658Z,3.87
2018-04-20T04:05:31.183Z,4.00
2018-04-20T04:07:58.750Z,4.60
2018-04-20T04:10:26.256Z,4.30
2018-04-20T04:12:53.757Z,4.20
2018-04-20T04:15:21.267Z,4.27
2018-04-20T04:18:00.631Z,4.43
2018-04-20T04:20:36.959Z,6.00
2018-04-20T04:23:16.722Z,7.17
2018-04-20T04:25:56.139Z,4.93
2018-04-20T04:28:27.474Z,4.53
2018-04-20T04:30:55.013Z,4.60
2018-04-20T04:33:22.507Z,3.93
2018-04-20T04:35:50.083Z,4.30
2018-04-20T04:38:17.591Z,5.27
2018-04-20T04:40:45.204Z,4.50
2018-04-20T04:43:12.708Z,4.53
2018-04-20T04:45:40.231Z,4.80
2018-04-20T04:48:07.761Z,6.53
2018-04-20T04:50:35.342Z,4.87
2018-04-20T04:53:02.848Z,5.70
2018-04-20T04:55:30.351Z,5.50
2018-04-20T04:57:57.843Z,5.13
2018-04-20T05:00:25.392Z,5.87
2018-04-20T05:02:52.935Z,5.03
2018-04-20T05:05:20.500Z,5.57
2018-04-20T05:07:48.053Z,6.13
2018-04-20T05:10:15.612Z,5.97
2018-04-20T05:12:43.115Z,5.67
2018-04-20T05:15:10.615Z,5.60
2018-04-20T05:17:38.111Z,5.00
2018-04-20T05:20:05.655Z,5.10
2018-04-20T05:22:33.155Z,5.50
2018-04-20T05:25:00.688Z,4.80
2018-04-20T05:27:28.244Z,5.10
2018-04-20T05:29:55.787Z,5.50
2018-04-20T05:32:23.345Z,8.60
2018-04-20T05:34:50.852Z,5.40
2018-04-20T05:37:18.412Z,6.27
2018-04-20T05:39:45.967Z,5.73
2018-04-20T05:42:13.481Z,5.87
2018-04-20T05:44:40.990Z,6.40
2018-04-20T05:47:08.517Z,5.93
2018-04-20T05:49:36.039Z,7.23
2018-04-20T05:52:03.600Z,6.30
2018-04-20T05:54:31.117Z,7.00
2018-04-20T05:56:58.652Z,6.43
2018-04-20T05:59:26.162Z,6.23
2018-04-20T06:01:53.751Z,6.43
2018-04-20T06:04:21.270Z,6.70
2018-04-20T06:06:48.775Z,6.20
2018-04-20T06:09:16.329Z,5.77
2018-04-20T06:11:43.878Z,6.17
2018-04-20T06:14:11.394Z,6.23
2018-04-20T06:16:38.891Z,6.43
2018-04-20T06:19:06.399Z,6.37
2018-04-20T06:21:34.229Z,6.83
2018-04-20T06:24:01.736Z,6.30
2018-04-20T06:26:29.250Z,6.93
2018-04-20T06:28:56.755Z,5.90
2018-04-20T06:31:24.275Z,6.80
2018-04-20T06:33:51.824Z,7.30
2018-04-20T06:36:19.325Z,6.03
2018-04-20T06:38:46.846Z,6.40
2018-04-20T06:41:14.354Z,6.47
2018-04-20T06:43:41.913Z,6.27
2018-04-20T06:46:09.501Z,6.40
2018-04-20T06:48:37.021Z,6.73
2018-04-20T06:51:04.602Z,8.30
2018-04-20T06:53:32.116Z,6.97
2018-04-20T06:55:59.639Z,7.83
2018-04-20T06:58:27.165Z,6.93
2018-04-20T07:00:54.669Z,7.50
2018-04-20T07:03:22.188Z,6.83
2018-04-20T07:05:49.685Z,7.40
2018-04-20T07:08:17.222Z,7.33
2018-04-20T07:10:44.715Z,7.50
2018-04-20T07:13:12.238Z,7.67
2018-04-20T07:15:39.742Z,7.33
2018-04-20T07:18:07.284Z,7.40
2018-04-20T07:20:34.803Z,8.27
2018-04-20T07:23:02.358Z,7.77
2018-04-20T07:25:29.851Z,7.57
2018-04-20T07:27:57.371Z,8.00
2018-04-20T07:30:24.874Z,8.17
2018-04-20T07:32:52.391Z,7.80
2018-04-20T07:35:19.918Z,8.40
2018-04-20T07:37:47.432Z,7.87
2018-04-20T07:40:14.939Z,6.03
2018-04-20T07:42:42.472Z,5.80
2018-04-20T07:45:09.966Z,5.60
2018-04-20T07:47:37.476Z,6.00
2018-04-20T07:50:05.008Z,6.13
2018-04-20T07:52:32.511Z,7.83
2018-04-20T07:55:00.030Z,6.33
2018-04-20T07:57:27.533Z,6.20
2018-04-20T07:59:55.085Z,6.30
2018-04-20T08:02:22.587Z,7.47
2018-04-20T08:04:50.101Z,6.63
2018-04-20T08:07:17.615Z,6.17
2018-04-20T08:09:45.117Z,6.13
2018-04-20T08:12:12.660Z,7.37
2018-04-20T08:14:40.229Z,7.10
2018-04-20T08:17:07.799Z,6.30
2018-04-20T08:19:35.307Z,6.57
2018-04-20T08:22:02.823Z,6.53
2018-04-20T08:24:30.331Z,6.57
2018-04-20T08:26:57.868Z,6.90
2018-04-20T08:29:25.450Z,6.80
2018-04-20T08:31:52.976Z,6.78
2018-04-20T08:34:20.532Z,7.03
2018-04-20T08:36:48.039Z,7.60
2018-04-20T08:39:15.589Z,6.75
2018-04-20T08:41:43.115Z,6.05
2018-04-20T08:44:10.616Z,7.05
2018-04-20T08:46:38.175Z,8.07
2018-04-20T08:49:05.670Z,7.75
2018-04-20T08:51:33.228Z,7.75
2018-04-20T08:54:00.816Z,6.82
2018-04-20T08:56:28.304Z,7.07
2018-04-20T08:58:55.812Z,7.50
2018-04-20T09:01:23.348Z,6.75
2018-04-20T09:03:50.864Z,7.70
2018-04-20T09:06:18.420Z,6.35
2018-04-20T09:08:45.925Z,6.28
2018-04-20T09:11:13.443Z,6.90
2018-04-20T09:13:40.988Z,6.95
2018-04-20T09:16:08.517Z,6.72
2018-04-20T09:18:36.092Z,8.45
2018-04-20T09:21:03.599Z,6.70
2018-04-20T09:23:31.114Z,7.32
2018-04-20T09:25:58.610Z,7.60
2018-04-20T09:28:26.108Z,6.95
2018-04-20T09:30:53.646Z,8.30
2018-04-20T09:33:21.146Z,6.78
2018-04-20T09:35:48.706Z,6.40
2018-04-20T09:38:16.212Z,7.53
2018-04-20T09:40:43.779Z,6.53
2018-04-20T09:43:11.284Z,7.25
2018-04-20T09:45:38.820Z,7.62
2018-04-20T09:48:06.362Z,6.63
2018-04-20T09:50:33.863Z,5.00
2018-04-20T09:53:01.431Z,4.37
2018-04-20T09:55:28.956Z,4.83
2018-04-20T09:57:56.491Z,5.03
2018-04-20T10:00:24.055Z,6.10
2018-04-20T10:02:51.952Z,5.73
2018-04-20T10:05:24.388Z,5.00
2018-04-20T10:07:51.953Z,5.00
2018-04-20T10:10:19.451Z,5.20
2018-04-20T10:12:46.962Z,4.67
2018-04-20T10:15:14.512Z,4.87
2018-04-20T10:17:42.033Z,5.63
2018-04-20T10:20:09.556Z,4.80
2018-04-20T10:22:37.077Z,4.60
2018-04-20T10:25:04.573Z,4.80
2018-04-20T10:27:32.114Z,4.97
2018-04-20T10:29:59.663Z,6.80
2018-04-20T10:32:27.171Z,5.30
2018-04-20T10:34:54.725Z,5.17
2018-04-20T10:37:22.227Z,5.20
2018-04-20T10:39:49.731Z,5.00
2018-04-20T10:42:17.275Z,5.50
2018-04-20T10:44:44.779Z,3.63
2018-04-20T10:47:12.403Z,4.40
2018-04-20T10:49:39.918Z,4.47
2018-04-20T10:52:07.431Z,5.47
2018-04-20T10:54:34.939Z,4.40
2018-04-20T10:57:02.438Z,4.37
2018-04-20T10:59:29.963Z,4.07
2018-04-20T11:01:57.471Z,4.30
2018-04-20T11:04:25.031Z,4.27
2018-04-20T11:06:52.531Z,4.73
2018-04-20T11:09:20.051Z,5.50
2018-04-20T11:11:47.610Z,4.70
2018-04-20T11:14:15.106Z,5.07
2018-04-20T11:16:42.629Z,4.10
2018-04-20T11:19:10.124Z,4.33
2018-04-20T11:21:38.488Z,3.87
2018-04-20T11:24:06.048Z,4.03
2018-04-20T11:26:33.559Z,3.90
2018-04-20T11:29:01.104Z,4.67
2018-04-20T11:31:28.598Z,5.10
2018-04-20T11:33:56.134Z,3.60
2018-04-20T11:36:23.643Z,4.43
2018-04-20T11:38:51.174Z,4.30
2018-04-20T11:41:18.667Z,3.80
2018-04-20T11:43:46.207Z,4.47
2018-04-20T11:46:13.706Z,4.40
2018-04-20T11:48:41.255Z,5.50
2018-04-20T11:51:08.806Z,5.40
2018-04-20T11:53:36.324Z,5.80
2018-04-20T11:56:03.841Z,5.80
2018-04-20T11:58:31.352Z,5.07
2018-04-20T12:00:58.895Z,4.90
2018-04-20T12:03:26.412Z,4.93
2018-04-20T12:05:53.927Z,4.67
2018-04-20T12:08:21.476Z,5.30
2018-04-20T12:10:49.001Z,5.20
2018-04-20T12:13:16.543Z,5.30
2018-04-20T12:15:44.060Z,5.17
2018-04-20T12:18:11.604Z,4.80
2018-04-20T12:20:39.110Z,4.83
2018-04-20T12:23:06.647Z,5.50
2018-04-20T12:25:34.150Z,5.63
2018-04-20T12:28:01.658Z,6.03
2018-04-20T12:30:29.302Z,5.30
2018-04-20T12:32:56.807Z,5.50
2018-04-20T12:35:24.299Z,5.37
2018-04-20T12:37:51.807Z,4.80
2018-04-20T12:40:19.360Z,5.20
2018-04-20T12:42:46.863Z,5.10
2018-04-20T12:45:14.358Z,5.30
2018-04-20T12:47:41.912Z,5.20
2018-04-20T12:50:09.488Z,4.83
2018-04-20T12:52:36.978Z,4.87
2018-04-20T12:55:04.471Z,4.30
2018-04-20T12:57:32.019Z,5.13
2018-04-20T12:59:59.524Z,4.50
2018-04-20T13:02:27.081Z,4.37
2018-04-20T13:04:54.625Z,4.80
2018-04-20T13:07:22.124Z,4.93
2018-04-20T13:09:49.640Z,4.50
2018-04-20T13:12:17.513Z,5.33
2018-04-20T13:14:45.025Z,4.53
2018-04-20T13:17:12.538Z,4.87
2018-04-20T13:19:40.056Z,4.43
2018-04-20T13:22:07.555Z,4.70
2018-04-20T13:24:35.051Z,5.00
2018-04-20T13:27:02.578Z,4.33
2018-04-20T13:29:30.092Z,4.03
2018-04-20T13:31:57.610Z,4.20
2018-04-20T13:34:25.237Z,4.17
2018-04-20T13:36:52.684Z,4.70
2018-04-20T13:39:20.176Z,3.80
2018-04-20T13:41:48.037Z,4.43
2018-04-20T13:44:15.536Z,4.30
2018-04-20T13:46:44.032Z,3.37
2018-04-20T13:49:11.543Z,3.50
2018-04-20T13:51:39.099Z,2.93
2018-04-20T13:54:06.603Z,2.80
2018-04-20T13:56:34.109Z,2.93
2018-04-20T13:59:01.607Z,3.47
2018-04-20T14:01:29.141Z,3.90
2018-04-20T14:03:56.689Z,3.23
2018-04-20T14:06:24.188Z,3.53
2018-04-20T14:08:51.740Z,3.03
2018-04-20T14:11:19.263Z,3.27
2018-04-20T14:13:46.767Z,3.40
2018-04-20T14:16:14.275Z,3.50
2018-04-20T14:18:41.769Z,3.37
2018-04-20T14:21:09.308Z,4.00
2018-04-20T14:23:36.825Z,2.40
2018-04-20T14:26:04.324Z,2.63
2018-04-20T14:28:31.831Z,4.13
2018-04-20T14:30:59.364Z,3.80
2018-04-20T14:33:26.871Z,3.20
2018-04-20T14:35:54.379Z,3.67
2018-04-20T14:38:21.911Z,2.70
2018-04-20T14:40:49.468Z,2.60
2018-04-20T14:43:17.023Z,2.93
2018-04-20T14:45:44.528Z,2.90
2018-04-20T14:48:12.045Z,3.23
2018-04-20T14:50:39.544Z,2.83
2018-04-20T14:53:07.054Z,2.90
2018-04-20T14:55:34.560Z,3.10
2018-04-20T14:58:02.057Z,3.47
2018-04-20T15:00:29.603Z,2.60
2018-04-20T15:02:57.115Z,3.30
2018-04-20T15:05:24.660Z,2.37
2018-04-20T15:07:52.199Z,2.70
2018-04-20T15:10:19.694Z,2.40
2018-04-20T15:12:47.244Z,2.50
2018-04-20T15:15:14.743Z,2.93
2018-04-20T15:17:42.239Z,2.77
2018-04-20T15:20:09.812Z,2.13
2018-04-20T15:22:37.319Z,3.53
2018-04-20T15:25:04.869Z,2.47
2018-04-20T15:27:32.416Z,2.10
2018-04-20T15:30:00.464Z,2.10
2018-04-20T15:32:27.960Z,3.20
2018-04-20T15:34:55.498Z,2.43
2018-04-20T15:37:22.999Z,2.47
2018-04-20T15:39:50.493Z,4.73
2018-04-20T15:42:17.995Z,3.07
2018-04-20T15:44:45.545Z,2.20
2018-04-20T15:47:13.044Z,2.70
2018-04-20T15:49:40.574Z,2.90
2018-04-20T15:52:08.129Z,2.13
2018-04-20T15:54:35.652Z,3.40
2018-04-20T15:57:03.165Z,2.00
2018-04-20T15:59:30.709Z,1.70
2018-04-20T16:01:58.214Z,2.50
2018-04-20T16:04:25.728Z,2.10
2018-04-20T16:06:53.348Z,3.77
2018-04-20T16:09:20.846Z,4.63
2018-04-20T16:11:48.409Z,2.40
2018-04-20T16:14:15.911Z,2.47
2018-04-20T16:16:43.454Z,2.63
2018-04-20T16:19:10.952Z,2.70
2018-04-20T16:21:38.500Z,2.90
2018-04-20T16:24:06.007Z,2.43
2018-04-20T16:26:33.547Z,2.23
2018-04-20T16:29:01.060Z,2.90
2018-04-20T16:31:28.639Z,3.53
2018-04-20T16:33:56.141Z,2.70
2018-04-20T16:36:23.643Z,2.40
2018-04-20T16:38:51.209Z,4.73
2018-04-20T16:41:18.704Z,2.90
2018-04-20T16:43:46.415Z,3.17
2018-04-20T16:46:13.915Z,3.60
2018-04-20T16:48:41.477Z,8.33
2018-04-20T16:51:08.979Z,3.33
2018-04-20T16:53:36.483Z,4.20
2018-04-20T16:56:03.992Z,5.57
2018-04-20T16:58:31.590Z,3.50
2018-04-20T17:00:59.134Z,3.43
2018-04-20T17:03:26.640Z,4.40
2018-04-20T17:05:54.141Z,4.47
2018-04-20T17:08:21.647Z,3.97
2018-04-20T17:10:49.152Z,3.93
2018-04-20T17:13:16.692Z,4.30
2018-04-20T17:15:44.200Z,4.83
2018-04-20T17:18:11.802Z,5.77
2018-04-20T17:20:39.323Z,4.83
2018-04-20T17:23:06.820Z,4.97
2018-04-20T17:25:34.339Z,5.23
2018-04-20T17:28:01.849Z,6.87
2018-04-20T17:30:29.454Z,6.73
2018-04-20T17:32:56.962Z,6.20
2018-04-20T17:35:24.465Z,6.57
2018-04-20T17:37:51.963Z,6.07
2018-04-20T17:40:19.475Z,5.13
2018-04-20T17:42:46.977Z,6.30
2018-04-20T17:45:14.481Z,5.73
2018-04-20T17:47:42.004Z,6.20
2018-04-20T17:50:09.516Z,5.57
2018-04-20T17:52:37.077Z,5.33
2018-04-20T17:55:04.579Z,4.97
2018-04-20T17:57:32.093Z,5.77
2018-04-20T17:59:59.598Z,6.03
2018-04-20T18:02:27.104Z,5.47
2018-04-20T18:04:54.603Z,5.70
2018-04-20T18:07:22.153Z,4.80
2018-04-20T18:09:49.660Z,5.50
2018-04-20T18:12:17.164Z,7.20
2018-04-20T18:14:44.679Z,8.67
2018-04-20T18:17:12.183Z,9.80
2018-04-20T18:19:39.721Z,5.07
2018-04-20T18:22:07.217Z,5.00
2018-04-20T18:24:34.730Z,5.20
2018-04-20T18:27:02.248Z,4.40
2018-04-20T18:29:29.757Z,5.90
2018-04-20T18:31:57.264Z,5.50
2018-04-20T18:34:24.759Z,5.17
2018-04-20T18:36:52.251Z,6.40
2018-04-20T18:39:19.747Z,5.70
2018-04-20T18:41:47.252Z,6.57
2018-04-20T18:44:14.787Z,6.77
2018-04-20T18:46:42.335Z,8.37
2018-04-20T18:49:09.839Z,11.50
2018-04-20T18:51:37.367Z,17.93
2018-04-20T18:54:04.883Z,16.87
2018-04-20T18:56:32.383Z,15.10
2018-04-20T18:58:59.891Z,14.63
2018-04-20T19:01:27.408Z,16.10
2018-04-20T19:03:54.956Z,15.57
2018-04-20T19:06:22.519Z,12.77
2018-04-20T19:08:50.044Z,15.87
2018-04-20T19:11:17.608Z,14.27
2018-04-20T19:13:45.131Z,13.70
2018-04-20T19:16:12.681Z,15.53
2018-04-20T19:18:40.194Z,18.03
2018-04-20T19:21:08.582Z,23.73
2018-04-20T19:23:36.102Z,25.23
2018-04-20T19:26:03.614Z,27.80
2018-04-20T19:28:31.156Z,19.33
2018-04-20T19:30:58.666Z,23.50
2018-04-20T19:33:26.213Z,23.83
2018-04-20T19:35:53.720Z,23.37
2018-04-20T19:38:21.248Z,19.07
2018-04-20T19:40:48.761Z,20.67
2018-04-20T19:43:16.302Z,11.83
2018-04-20T19:45:43.818Z,14.33
2018-04-20T19:48:11.331Z,13.27
2018-04-20T19:50:38.849Z,10.83
2018-04-20T19:53:06.359Z,13.50
2018-04-20T19:55:33.868Z,8.10
2018-04-20T19:58:01.377Z,7.80
2018-04-20T20:00:28.883Z,8.97
2018-04-20T20:02:56.423Z,13.63
2018-04-20T20:05:23.971Z,10.17
2018-04-20T20:07:51.480Z,10.33
2018-04-20T20:10:18.992Z,11.10
2018-04-20T20:12:46.496Z,8.33
2018-04-20T20:15:14.012Z,7.77
2018-04-20T20:17:41.830Z,10.13
2018-04-20T20:20:09.339Z,11.27
2018-04-20T20:22:36.882Z,9.17
2018-04-20T20:25:04.429Z,7.53
2018-04-20T20:27:31.912Z,9.90
2018-04-20T20:29:59.423Z,11.90
2018-04-20T20:32:26.929Z,9.90
2018-04-20T20:34:54.435Z,10.47
2018-04-20T20:37:21.942Z,13.57
2018-04-20T20:39:49.449Z,12.47
2018-04-20T20:42:16.962Z,15.20
2018-04-20T20:44:44.463Z,16.33
2018-04-20T20:47:11.994Z,20.33
2018-04-20T20:49:39.509Z,18.87
2018-04-20T20:52:07.027Z,17.90
2018-04-20T20:54:34.533Z,17.63
2018-04-20T20:57:02.967Z,16.90
2018-04-20T20:59:31.287Z,12.73
2018-04-20T21:01:58.786Z,13.27
2018-04-20T21:04:26.293Z,15.73
2018-04-20T21:06:53.819Z,13.83
2018-04-20T21:09:21.374Z,13.67
2018-04-20T21:11:48.943Z,12.73
2018-04-20T21:14:16.481Z,10.90
2018-04-20T21:16:44.024Z,9.67
2018-04-20T21:19:11.611Z,10.03
2018-04-20T21:21:39.144Z,8.10
2018-04-20T21:24:06.644Z,8.17
2018-04-20T21:26:34.470Z,8.57
2018-04-20T21:29:01.972Z,7.30
2018-04-20T21:31:29.493Z,6.67
2018-04-20T21:33:59.378Z,6.43
2018-04-20T21:36:24.619Z,7.03
2018-04-20T21:38:52.141Z,7.07
2018-04-20T21:41:19.648Z,7.40
2018-04-20T21:43:47.160Z,12.80
2018-04-20T21:46:14.662Z,19.03
2018-04-20T21:48:42.168Z,23.47
2018-04-20T21:51:09.672Z,31.67
2018-04-20T21:53:37.219Z,30.60
2018-04-20T21:56:04.753Z,33.17
2018-04-20T21:58:32.263Z,35.13
2018-04-20T22:00:59.831Z,36.73
2018-04-20T22:03:27.383Z,38.93
2018-04-20T22:05:55.939Z,35.47
2018-04-20T22:08:23.492Z,34.37
2018-04-20T22:10:51.074Z,37.53
2018-04-20T22:13:18.613Z,28.53
2018-04-20T22:15:46.168Z,20.80
2018-04-20T22:18:13.703Z,19.53
2018-04-20T22:20:41.255Z,10.90
2018-04-20T22:23:08.835Z,13.27
2018-04-20T22:25:36.371Z,15.37
2018-04-20T22:28:04.041Z,17.93
2018-04-20T22:30:31.627Z,20.60
2018-04-20T22:32:59.151Z,19.43
2018-04-20T22:35:26.690Z,21.03
2018-04-20T22:37:54.234Z,20.87
2018-04-20T22:40:21.767Z,24.10
2018-04-20T22:42:49.280Z,23.80
2018-04-20T22:45:16.828Z,24.17
2018-04-20T22:47:44.377Z,22.43
2018-04-20T22:50:11.924Z,18.97
2018-04-20T22:52:39.432Z,19.50
2018-04-20T22:55:06.936Z,11.63
2018-04-20T22:57:34.484Z,10.30
2018-04-20T23:00:02.001Z,12.00
2018-04-20T23:02:29.511Z,12.00
2018-04-20T23:04:57.024Z,9.73
2018-04-20T23:07:24.580Z,8.80
2018-04-20T23:09:52.191Z,8.03
2018-04-20T23:12:19.772Z,8.67
2018-04-20T23:14:47.304Z,8.27
2018-04-20T23:17:14.959Z,8.23
2018-04-20T23:19:42.504Z,8.30
2018-04-20T23:22:10.085Z,8.17
2018-04-20T23:27:10.529Z,7.90
2018-04-20T23:29:38.133Z,7.97
2018-04-20T23:32:05.663Z,7.80
2018-04-20T23:34:33.215Z,8.00
2018-04-20T23:37:00.759Z,7.90
2018-04-20T23:39:28.337Z,7.10
2018-04-20T23:41:55.864Z,6.27
2018-04-20T23:44:23.416Z,6.10
2018-04-20T23:46:50.993Z,6.43
2018-04-20T23:49:18.529Z,6.33
2018-04-20T23:51:46.067Z,6.83
2018-04-20T23:54:13.618Z,6.40
2018-04-20T23:56:42.073Z,6.50
2018-04-20T23:59:09.639Z,6.30
